createdAt,value
2023-05-22T00:01:47.588Z,45.10
2023-05-22T00:04:21.231Z,40.10
2023-05-22T00:06:50.928Z,45.30
2023-05-22T00:09:18.780Z,37.75
2023-05-22T00:11:47.505Z,50.05
2023-05-22T00:14:15.744Z,39.05
2023-05-22T00:16:43.516Z,50.75
2023-05-22T00:19:13.448Z,53.80
2023-05-22T00:21:41.612Z,43.30
2023-05-22T00:24:10.834Z,37.17
2023-05-22T00:26:38.494Z,45.95
2023-05-22T00:29:06.753Z,42.53
2023-05-22T00:31:35.193Z,45.33
2023-05-22T00:34:02.986Z,44.97
2023-05-22T00:36:30.699Z,40.13
2023-05-22T00:38:58.388Z,44.08
2023-05-22T00:41:28.073Z,36.35
2023-05-22T00:43:55.971Z,44.35
2023-05-22T00:46:24.555Z,61.40
2023-05-22T00:48:53.107Z,43.25
2023-05-22T00:51:21.398Z,44.13
2023-05-22T00:53:49.235Z,48.88
2023-05-22T00:56:17.127Z,37.92
2023-05-22T00:58:46.403Z,49.83
2023-05-22T01:01:14.147Z,42.25
2023-05-22T01:03:45.131Z,43.78
2023-05-22T01:06:14.331Z,41.38
2023-05-22T01:08:42.388Z,39.10
2023-05-22T01:11:13.795Z,48.80
2023-05-22T01:13:45.821Z,38.80
2023-05-22T01:16:19.255Z,40.50
2023-05-22T01:18:49.021Z,38.67
2023-05-22T01:21:22.780Z,45.72
2023-05-22T01:24:13.912Z,43.80
2023-05-22T01:26:58.898Z,46.40
2023-05-22T01:29:32.049Z,49.42
2023-05-22T01:32:02.272Z,50.97
2023-05-22T01:34:31.808Z,53.22
2023-05-22T01:37:00.149Z,44.78
2023-05-22T01:39:28.914Z,45.25
2023-05-22T01:41:57.022Z,48.08
2023-05-22T01:44:25.243Z,56.40
2023-05-22T01:46:53.289Z,43.50
2023-05-22T01:49:22.322Z,53.75
2023-05-22T01:51:53.823Z,51.38
2023-05-22T01:54:24.281Z,61.65
2023-05-22T01:56:55.831Z,67.70
2023-05-22T01:59:28.044Z,58.17
2023-05-22T02:01:57.385Z,62.83
2023-05-22T02:04:26.991Z,51.80
2023-05-22T02:06:55.754Z,54.13
2023-05-22T02:09:23.953Z,55.90
2023-05-22T02:11:51.789Z,63.17
2023-05-22T02:14:20.029Z,67.40
2023-05-22T02:16:47.808Z,61.22
2023-05-22T02:19:15.632Z,64.70
2023-05-22T02:21:44.867Z,57.25
2023-05-22T02:24:12.572Z,63.63
2023-05-22T02:26:42.459Z,60.08
2023-05-22T02:29:10.215Z,55.00
2023-05-22T02:31:41.229Z,63.65
2023-05-22T02:34:09.011Z,60.08
2023-05-22T02:36:38.862Z,77.72
2023-05-22T02:39:07.896Z,68.72
2023-05-22T02:41:36.181Z,65.90
2023-05-22T02:44:03.868Z,62.40
2023-05-22T02:46:34.159Z,69.13
2023-05-22T02:49:01.912Z,60.72
2023-05-22T02:51:29.670Z,76.32
2023-05-22T02:53:57.335Z,63.53
2023-05-22T02:56:28.915Z,70.75
2023-05-22T02:58:57.411Z,70.97
2023-05-22T03:01:26.461Z,71.60
2023-05-22T03:03:55.164Z,67.35
2023-05-22T03:06:23.258Z,69.07
2023-05-22T03:08:51.122Z,75.57
2023-05-22T03:11:18.811Z,75.22
2023-05-22T03:13:48.780Z,66.60
2023-05-22T03:18:53.519Z,76.90
2023-05-22T03:21:21.301Z,77.63
2023-05-22T03:23:50.171Z,81.82
2023-05-22T03:26:17.824Z,71.65
2023-05-22T03:28:45.587Z,81.32
2023-05-22T03:31:15.398Z,80.72
2023-05-22T03:33:43.108Z,77.63
2023-05-22T03:36:10.949Z,75.97
2023-05-22T03:38:38.658Z,72.00
2023-05-22T03:41:07.888Z,83.65
2023-05-22T03:43:35.561Z,80.78
2023-05-22T03:46:03.259Z,76.63
2023-05-22T03:48:32.427Z,87.68
2023-05-22T03:51:00.120Z,85.45
2023-05-22T03:53:28.367Z,81.20
2023-05-22T03:55:57.945Z,87.68
2023-05-22T03:58:25.951Z,98.72
2023-05-22T04:00:53.957Z,89.72
2023-05-22T04:03:21.754Z,86.30
2023-05-22T04:05:51.419Z,87.88
2023-05-22T04:08:19.065Z,86.28
2023-05-22T04:10:49.203Z,98.28
2023-05-22T04:13:17.198Z,99.22
2023-05-22T04:15:46.038Z,93.22
2023-05-22T04:18:14.024Z,96.57
2023-05-22T04:20:42.743Z,94.47
2023-05-22T04:23:13.402Z,104.10
2023-05-22T04:25:41.077Z,100.18
2023-05-22T04:28:10.754Z,93.50
2023-05-22T04:30:40.631Z,91.55
2023-05-22T04:33:14.289Z,90.22
2023-05-22T04:35:42.418Z,82.72
2023-05-22T04:38:10.613Z,100.30
2023-05-22T04:40:40.063Z,95.53
2023-05-22T04:43:12.992Z,89.72
2023-05-22T04:45:42.330Z,102.95
2023-05-22T04:48:11.986Z,90.15
2023-05-22T04:50:39.988Z,97.68
2023-05-22T04:53:07.914Z,100.53
2023-05-22T04:55:35.848Z,99.65
2023-05-22T04:58:05.944Z,96.53
2023-05-22T05:00:33.920Z,98.53
2023-05-22T05:03:02.083Z,97.47
2023-05-22T05:05:31.697Z,101.20
2023-05-22T05:07:59.505Z,103.30
2023-05-22T05:10:27.176Z,123.35
2023-05-22T05:12:54.859Z,100.03
2023-05-22T05:15:24.061Z,97.70
2023-05-22T05:17:51.943Z,103.15
2023-05-22T05:20:20.243Z,94.65
2023-05-22T05:22:48.033Z,95.43
2023-05-22T05:25:15.704Z,104.25
2023-05-22T05:27:43.413Z,91.85
2023-05-22T05:30:11.652Z,82.80
2023-05-22T05:32:45.793Z,99.78
2023-05-22T05:35:13.656Z,87.78
2023-05-22T05:37:41.765Z,81.97
2023-05-22T05:40:10.400Z,99.95
2023-05-22T05:42:39.595Z,78.45
2023-05-22T05:45:08.717Z,88.80
2023-05-22T05:47:37.095Z,93.55
2023-05-22T05:50:07.234Z,81.35
2023-05-22T05:52:35.731Z,84.90
2023-05-22T05:55:03.648Z,87.07
2023-05-22T05:57:36.019Z,88.60
2023-05-22T06:00:05.606Z,82.10
2023-05-22T06:02:34.456Z,70.88
2023-05-22T06:05:02.290Z,83.22
2023-05-22T06:07:34.299Z,76.85
2023-05-22T06:10:02.605Z,68.82
2023-05-22T06:12:30.305Z,74.72
2023-05-22T06:14:57.935Z,76.13
2023-05-22T06:17:26.167Z,60.30
2023-05-22T06:19:53.898Z,63.95
2023-05-22T06:22:21.564Z,71.28
2023-05-22T06:24:50.925Z,59.38
2023-05-22T06:27:18.773Z,65.07
2023-05-22T06:29:46.652Z,60.63
2023-05-22T06:32:14.544Z,62.38
2023-05-22T06:34:42.292Z,63.05
2023-05-22T06:37:10.137Z,66.95
2023-05-22T06:39:37.816Z,59.10
2023-05-22T06:42:07.387Z,60.60
2023-05-22T06:44:35.052Z,54.15
2023-05-22T06:47:03.745Z,60.78
2023-05-22T06:49:31.415Z,45.58
2023-05-22T06:51:59.074Z,52.72
2023-05-22T06:54:28.723Z,57.83
2023-05-22T06:56:56.627Z,43.63
2023-05-22T06:59:25.646Z,53.67
2023-05-22T07:01:53.431Z,51.13
2023-05-22T07:04:21.074Z,50.08
2023-05-22T07:06:50.004Z,59.22
2023-05-22T07:09:17.796Z,56.45
2023-05-22T07:11:45.545Z,51.03
2023-05-22T07:14:13.654Z,55.38
2023-05-22T07:16:47.066Z,46.85
2023-05-22T07:19:15.503Z,55.00
2023-05-22T07:21:43.185Z,43.55
2023-05-22T07:24:11.098Z,46.72
2023-05-22T07:26:39.217Z,57.65
2023-05-22T07:29:06.933Z,40.75
2023-05-22T07:31:34.688Z,41.38
2023-05-22T07:34:03.877Z,44.63
2023-05-22T07:36:31.908Z,49.72
2023-05-22T07:38:59.738Z,48.78
2023-05-22T07:41:28.255Z,46.75
2023-05-22T07:43:55.920Z,42.10
2023-05-22T07:46:23.678Z,56.33
2023-05-22T07:48:51.418Z,50.72
2023-05-22T07:51:24.995Z,51.38
2023-05-22T07:53:52.656Z,46.28
2023-05-22T07:56:20.331Z,51.35
2023-05-22T07:58:49.046Z,41.38
2023-05-22T08:01:17.227Z,44.17
2023-05-22T08:03:45.029Z,46.88
2023-05-22T08:06:15.446Z,53.67
2023-05-22T08:08:44.502Z,50.08
2023-05-22T08:11:12.409Z,42.47
2023-05-22T08:13:40.085Z,44.63
2023-05-22T08:16:08.236Z,48.58
2023-05-22T08:18:36.112Z,54.10
2023-05-22T08:21:03.778Z,45.85
2023-05-22T08:23:31.502Z,43.22
2023-05-22T08:26:00.538Z,52.60
2023-05-22T08:28:28.263Z,63.92
2023-05-22T08:30:56.132Z,50.33
2023-05-22T08:33:24.516Z,49.17
2023-05-22T08:35:53.747Z,49.13
2023-05-22T08:38:22.070Z,58.78
2023-05-22T08:40:50.096Z,51.78
2023-05-22T08:43:20.858Z,47.33
2023-05-22T08:45:49.381Z,54.47
2023-05-22T08:48:17.816Z,49.22
2023-05-22T08:50:46.250Z,54.13
2023-05-22T08:53:14.912Z,49.38
2023-05-22T08:55:42.825Z,45.58
2023-05-22T08:58:11.559Z,51.90
2023-05-22T09:00:41.184Z,54.75
2023-05-22T09:03:10.256Z,52.80
2023-05-22T09:05:39.290Z,51.20
2023-05-22T09:08:19.251Z,50.75
2023-05-22T09:10:48.686Z,52.80
2023-05-22T09:13:26.461Z,54.97
2023-05-22T09:15:59.520Z,55.40
2023-05-22T09:18:28.366Z,49.95
2023-05-22T09:20:58.050Z,51.75
2023-05-22T09:23:28.579Z,51.78
2023-05-22T09:25:56.737Z,52.53
2023-05-22T09:28:24.610Z,40.75
2023-05-22T09:30:52.453Z,46.13
2023-05-22T09:33:21.969Z,44.38
2023-05-22T09:35:50.148Z,54.58
2023-05-22T09:38:21.027Z,51.03
2023-05-22T09:40:53.668Z,50.78
2023-05-22T09:43:22.435Z,51.45
2023-05-22T09:45:50.415Z,48.22
2023-05-22T09:48:18.592Z,42.00
2023-05-22T09:50:49.977Z,49.25
2023-05-22T09:53:18.410Z,45.40
2023-05-22T09:55:49.236Z,39.42
2023-05-22T09:58:19.710Z,46.55
2023-05-22T10:00:47.715Z,40.47
2023-05-22T10:03:16.053Z,42.65
2023-05-22T10:05:46.879Z,37.20
2023-05-22T10:08:17.307Z,37.85
2023-05-22T10:10:48.301Z,44.92
2023-05-22T10:13:16.226Z,39.85
2023-05-22T10:15:44.218Z,39.47
2023-05-22T10:18:12.898Z,32.13
2023-05-22T10:20:41.443Z,45.28
2023-05-22T10:23:10.677Z,31.52
2023-05-22T10:25:40.232Z,33.67
2023-05-22T10:28:08.857Z,28.30
2023-05-22T10:30:43.266Z,27.27
2023-05-22T10:33:14.126Z,26.73
2023-05-22T10:35:44.483Z,29.52
2023-05-22T10:38:24.409Z,31.92
2023-05-22T10:40:53.801Z,29.70
2023-05-22T10:43:22.559Z,35.70
2023-05-22T10:45:50.722Z,26.75
2023-05-22T10:48:22.741Z,31.45
2023-05-22T10:50:53.957Z,30.15
2023-05-22T10:53:24.249Z,27.73
2023-05-22T10:55:53.736Z,29.30
2023-05-22T10:58:27.148Z,26.13
2023-05-22T11:01:12.967Z,27.25
2023-05-22T11:03:56.572Z,29.52
2023-05-22T11:06:35.006Z,30.75
2023-05-22T11:09:17.985Z,27.58
2023-05-22T11:11:47.293Z,33.08
2023-05-22T11:14:17.316Z,33.55
2023-05-22T11:16:45.170Z,30.10
2023-05-22T11:21:43.958Z,33.60
2023-05-22T11:24:11.863Z,27.30
2023-05-22T11:26:42.767Z,29.13
2023-05-22T11:29:12.117Z,30.45
2023-05-22T11:31:40.402Z,29.02
2023-05-22T11:34:08.875Z,25.58
2023-05-22T11:36:37.427Z,25.70
2023-05-22T11:39:05.356Z,27.83
2023-05-22T11:41:34.167Z,26.20
2023-05-22T11:44:03.470Z,33.10
2023-05-22T11:46:32.664Z,28.02
2023-05-22T11:49:00.935Z,28.88
2023-05-22T11:51:28.730Z,29.17
2023-05-22T11:53:58.265Z,27.17
2023-05-22T11:56:26.408Z,26.85
2023-05-22T11:58:54.274Z,34.25
2023-05-22T12:01:21.908Z,34.17
2023-05-22T12:03:51.387Z,23.50
2023-05-22T12:06:19.241Z,26.33
2023-05-22T12:08:48.904Z,23.15
2023-05-22T12:11:16.690Z,33.90
2023-05-22T12:13:45.521Z,28.77
2023-05-22T12:16:19.695Z,30.08
2023-05-22T12:18:47.571Z,23.02
2023-05-22T12:21:16.702Z,27.02
2023-05-22T12:23:50.869Z,27.25
2023-05-22T12:26:18.691Z,31.60
2023-05-22T12:28:46.571Z,35.65
2023-05-22T12:31:21.119Z,29.20
2023-05-22T12:33:48.872Z,34.28
2023-05-22T12:36:17.896Z,26.27
2023-05-22T12:38:46.178Z,25.88
2023-05-22T12:41:13.827Z,30.67
2023-05-22T12:43:41.604Z,31.67
2023-05-22T12:46:09.389Z,30.40
2023-05-22T12:48:40.199Z,27.40
2023-05-22T12:51:09.439Z,27.42
2023-05-22T12:53:38.654Z,25.42
2023-05-22T12:56:06.633Z,28.92
2023-05-22T12:58:34.475Z,35.63
2023-05-22T13:01:02.282Z,32.90
2023-05-22T13:03:29.986Z,28.75
2023-05-22T13:05:57.656Z,27.25
2023-05-22T13:08:25.520Z,30.73
2023-05-22T13:10:54.607Z,27.45
2023-05-22T13:13:22.340Z,27.08
2023-05-22T13:15:50.032Z,32.20
2023-05-22T13:18:17.756Z,28.80
2023-05-22T13:20:46.072Z,29.80
2023-05-22T13:23:13.723Z,29.83
2023-05-22T13:25:42.735Z,33.80
2023-05-22T13:28:11.911Z,32.58
2023-05-22T13:30:40.238Z,30.83
2023-05-22T13:33:08.311Z,29.75
2023-05-22T13:35:36.192Z,31.33
2023-05-22T13:38:04.016Z,29.85
2023-05-22T13:40:31.701Z,32.85
2023-05-22T13:43:00.854Z,31.08
2023-05-22T13:45:29.991Z,29.25
2023-05-22T13:47:57.768Z,28.88
2023-05-22T13:50:25.596Z,25.58
2023-05-22T13:52:53.370Z,37.60
2023-05-22T13:55:21.215Z,24.63
2023-05-22T13:57:48.867Z,26.73
2023-05-22T14:00:16.915Z,30.70
2023-05-22T14:02:46.562Z,34.83
2023-05-22T14:05:14.268Z,25.55
2023-05-22T14:07:41.996Z,33.20
2023-05-22T14:10:11.056Z,30.88
2023-05-22T14:12:38.732Z,33.05
2023-05-22T14:15:06.977Z,27.98
2023-05-22T14:17:34.695Z,33.78
2023-05-22T14:20:07.247Z,25.92
2023-05-22T14:22:47.855Z,29.02
2023-05-22T14:25:22.756Z,23.10
2023-05-22T14:27:50.501Z,21.42
2023-05-22T14:30:18.462Z,28.17
2023-05-22T14:32:46.912Z,29.45
2023-05-22T14:35:16.853Z,31.50
2023-05-22T14:37:44.790Z,29.88
2023-05-22T14:40:12.699Z,28.63
2023-05-22T14:42:41.525Z,26.75
2023-05-22T14:45:23.908Z,23.85
2023-05-22T14:47:51.874Z,28.88
2023-05-22T14:50:21.201Z,27.92
2023-05-22T14:52:49.327Z,21.80
2023-05-22T14:55:17.512Z,26.42
2023-05-22T14:57:45.451Z,25.08
2023-05-22T15:00:15.300Z,28.23
2023-05-22T15:02:43.034Z,22.13
2023-05-22T15:05:11.410Z,23.63
2023-05-22T15:07:44.424Z,30.20
2023-05-22T15:10:13.504Z,22.73
2023-05-22T15:12:41.251Z,24.75
2023-05-22T15:15:09.526Z,39.80
2023-05-22T15:17:37.210Z,28.08
2023-05-22T15:20:05.567Z,26.73
2023-05-22T15:22:33.276Z,26.50
2023-05-22T15:25:06.418Z,23.83
2023-05-22T15:27:34.729Z,32.17
2023-05-22T15:30:02.452Z,29.23
2023-05-22T15:32:30.860Z,30.40
2023-05-22T15:34:58.653Z,26.45
2023-05-22T15:37:26.346Z,23.95
2023-05-22T15:39:54.927Z,21.63
2023-05-22T15:42:23.968Z,23.77
2023-05-22T15:44:51.697Z,29.58
2023-05-22T15:50:36.290Z,31.42
2023-05-22T15:53:04.142Z,24.17
2023-05-22T15:55:33.422Z,25.25
2023-05-22T15:58:06.107Z,25.45
2023-05-22T16:00:38.587Z,27.45
2023-05-22T16:03:08.435Z,30.50
2023-05-22T16:05:36.553Z,31.55
2023-05-22T16:08:04.295Z,27.13
2023-05-22T16:10:32.004Z,36.90
2023-05-22T16:13:00.134Z,32.72
2023-05-22T16:15:29.129Z,24.05
2023-05-22T16:17:56.839Z,26.00
2023-05-22T16:20:24.840Z,33.05
2023-05-22T16:22:52.751Z,33.25
2023-05-22T16:25:20.565Z,22.60
2023-05-22T16:27:48.456Z,30.23
2023-05-22T16:30:17.381Z,34.30
2023-05-22T16:32:47.434Z,23.85
2023-05-22T16:35:15.266Z,26.70
2023-05-22T16:37:43.335Z,42.05
2023-05-22T16:40:11.631Z,31.20
2023-05-22T16:42:40.158Z,36.63
2023-05-22T16:45:08.778Z,30.98
2023-05-22T16:47:36.591Z,34.58
2023-05-22T16:50:06.359Z,31.73
2023-05-22T16:52:34.061Z,38.13
2023-05-22T16:55:02.889Z,36.25
2023-05-22T16:57:30.653Z,36.58
2023-05-22T16:59:58.366Z,40.30
2023-05-22T17:02:26.325Z,43.65
2023-05-22T17:05:09.423Z,44.42
2023-05-22T17:07:38.482Z,44.97
2023-05-22T17:10:06.551Z,47.22
2023-05-22T17:12:34.293Z,42.70
2023-05-22T17:15:08.102Z,52.05
2023-05-22T17:17:36.010Z,47.33
2023-05-22T17:20:06.652Z,45.13
2023-05-22T17:22:36.146Z,46.63
2023-05-22T17:25:06.116Z,43.90
2023-05-22T17:27:36.593Z,42.80
2023-05-22T17:30:06.042Z,42.97
2023-05-22T17:32:34.034Z,41.00
2023-05-22T17:35:02.316Z,37.25
2023-05-22T17:37:30.000Z,42.67
2023-05-22T17:39:57.670Z,43.60
2023-05-22T17:42:27.035Z,45.35
2023-05-22T17:45:13.261Z,39.67
2023-05-22T17:47:41.115Z,37.30
2023-05-22T17:50:11.373Z,34.45
2023-05-22T17:52:39.205Z,38.33
2023-05-22T17:55:08.195Z,41.13
2023-05-22T17:57:37.296Z,40.78
2023-05-22T18:00:09.840Z,44.65
2023-05-22T18:02:37.710Z,34.50
2023-05-22T18:05:06.259Z,38.20
2023-05-22T18:07:34.077Z,34.45
2023-05-22T18:10:10.001Z,44.47
2023-05-22T18:12:39.028Z,34.20
2023-05-22T18:15:14.013Z,33.03
2023-05-22T18:17:41.851Z,34.60
2023-05-22T18:20:11.959Z,35.20
2023-05-22T18:22:40.337Z,33.33
2023-05-22T18:25:10.472Z,32.92
2023-05-22T18:27:39.509Z,31.77
2023-05-22T18:30:07.914Z,34.53
2023-05-22T18:32:35.632Z,37.72
2023-05-22T18:35:28.282Z,37.40
2023-05-22T18:37:55.948Z,32.47
2023-05-22T18:40:26.397Z,32.65
2023-05-22T18:42:55.537Z,26.52
2023-05-22T18:45:26.572Z,29.48
2023-05-22T18:47:54.252Z,33.15
2023-05-22T18:50:23.763Z,25.35
2023-05-22T18:52:51.613Z,28.65
2023-05-22T18:55:22.088Z,29.38
2023-05-22T18:57:52.736Z,24.67
2023-05-22T19:00:21.770Z,31.33
2023-05-22T19:02:49.515Z,20.38
2023-05-22T19:05:33.820Z,30.95
2023-05-22T19:08:01.497Z,23.13
2023-05-22T19:10:29.216Z,25.85
2023-05-22T19:12:57.560Z,24.80
2023-05-22T19:15:26.759Z,28.95
2023-05-22T19:17:54.771Z,22.00
2023-05-22T19:20:23.322Z,21.10
2023-05-22T19:22:51.918Z,24.58
2023-05-22T19:25:22.451Z,23.63
2023-05-22T19:27:50.154Z,26.23
2023-05-22T19:30:19.053Z,26.25
2023-05-22T19:32:49.662Z,19.05
2023-05-22T19:35:17.469Z,31.45
2023-05-22T19:37:56.756Z,24.60
2023-05-22T19:40:24.477Z,24.02
2023-05-22T19:42:53.991Z,26.70
2023-05-22T19:48:34.123Z,27.23
2023-05-22T19:51:02.661Z,30.33
2023-05-22T19:53:31.220Z,27.60
2023-05-22T19:56:00.342Z,35.35
2023-05-22T19:58:32.883Z,28.60
2023-05-22T20:01:00.800Z,39.03
2023-05-22T20:03:28.722Z,37.22
2023-05-22T20:05:58.955Z,35.85
2023-05-22T20:08:26.869Z,39.97
2023-05-22T20:10:57.086Z,29.95
2023-05-22T20:13:24.795Z,31.25
2023-05-22T20:15:59.792Z,37.40
2023-05-22T20:18:27.724Z,33.10
2023-05-22T20:20:56.277Z,33.90
2023-05-22T20:23:25.612Z,39.22
2023-05-22T20:25:55.637Z,38.85
2023-05-22T20:28:23.283Z,28.92
2023-05-22T20:30:51.129Z,36.15
2023-05-22T20:33:19.437Z,34.70
2023-05-22T20:35:50.243Z,36.95
2023-05-22T20:38:20.035Z,34.55
2023-05-22T20:40:49.098Z,41.22
2023-05-22T20:43:18.569Z,37.42
2023-05-22T20:45:46.751Z,38.83
2023-05-22T20:48:14.681Z,42.55
2023-05-22T20:50:42.484Z,36.38
2023-05-22T20:53:10.222Z,29.92
2023-05-22T20:55:38.166Z,33.30
2023-05-22T20:58:07.463Z,36.08
2023-05-22T21:00:35.153Z,34.70
2023-05-22T21:03:02.931Z,38.60
2023-05-22T21:05:30.961Z,34.78
2023-05-22T21:07:59.281Z,38.03
2023-05-22T21:10:26.967Z,38.55
2023-05-22T21:12:54.775Z,35.70
2023-05-22T21:15:23.810Z,41.47
2023-05-22T21:17:51.561Z,46.05
2023-05-22T21:20:19.291Z,44.40
2023-05-22T21:22:48.126Z,47.38
2023-05-22T21:25:15.813Z,43.50
2023-05-22T21:27:43.677Z,52.30
2023-05-22T21:30:13.112Z,54.35
2023-05-22T21:32:42.183Z,47.85
2023-05-22T21:35:10.379Z,52.50
2023-05-22T21:37:40.283Z,56.30
2023-05-22T21:40:08.905Z,43.55
2023-05-22T21:42:45.729Z,41.00
2023-05-22T21:45:14.116Z,45.95
2023-05-22T21:47:43.867Z,43.88
2023-05-22T21:50:12.023Z,39.28
2023-05-22T21:52:39.814Z,43.30
2023-05-22T21:55:08.354Z,42.50
2023-05-22T21:57:36.149Z,54.88
2023-05-22T22:00:03.876Z,48.33
2023-05-22T22:02:31.639Z,46.40
2023-05-22T22:05:00.800Z,46.63
2023-05-22T22:07:28.558Z,46.72
2023-05-22T22:09:56.203Z,46.33
2023-05-22T22:12:23.852Z,39.35
2023-05-22T22:14:51.720Z,53.05
2023-05-22T22:17:23.801Z,37.40
2023-05-22T22:19:53.688Z,42.38
2023-05-22T22:22:22.880Z,31.65
2023-05-22T22:24:50.764Z,36.10
2023-05-22T22:27:19.700Z,40.38
2023-05-22T22:29:47.353Z,36.97
2023-05-22T22:32:15.102Z,40.40
2023-05-22T22:34:43.194Z,46.58
2023-05-22T22:37:11.154Z,35.40
2023-05-22T22:39:40.189Z,32.03
2023-05-22T22:42:08.271Z,40.33
2023-05-22T22:44:36.337Z,41.72
2023-05-22T22:47:04.769Z,44.10
2023-05-22T22:49:32.749Z,39.92
2023-05-22T22:52:00.841Z,52.88
2023-05-22T22:54:28.533Z,51.25
2023-05-22T22:56:57.650Z,57.60
2023-05-22T22:59:25.372Z,34.35
2023-05-22T23:01:53.069Z,39.63
2023-05-22T23:04:21.021Z,47.80
2023-05-22T23:06:48.731Z,38.83
2023-05-22T23:09:16.528Z,51.42
2023-05-22T23:11:44.267Z,48.63
2023-05-22T23:14:13.506Z,50.72
2023-05-22T23:16:42.651Z,50.50
2023-05-22T23:19:13.831Z,45.25
2023-05-22T23:21:41.613Z,46.90
2023-05-22T23:24:10.648Z,64.55
2023-05-22T23:26:38.951Z,46.83
2023-05-22T23:29:06.627Z,59.35
2023-05-22T23:31:36.605Z,71.38
2023-05-22T23:34:04.591Z,52.05
2023-05-22T23:36:32.595Z,60.25
2023-05-22T23:39:00.293Z,60.00
2023-05-22T23:41:28.102Z,56.55
2023-05-22T23:43:55.779Z,54.67
2023-05-22T23:46:26.524Z,49.30
2023-05-22T23:48:55.684Z,53.42
2023-05-22T23:51:23.491Z,54.22
2023-05-22T23:53:51.354Z,51.03
2023-05-22T23:56:19.393Z,53.35
2023-05-22T23:58:47.053Z,53.13
